GMTT

Ibn Batouta Airport

Tangier, Morocco
METAR GMTT 201900Z 17003KT 130V230 9999 SCT023 20/14 Q1014 NOSIG
Observed Flight Rules
Oct-20 @ 19:00 UTC (22 minutes ago) Visual Flight Rules
Wind Visibility Clouds
170° at 3 knots 10,000+ meters
  • Scattered at 2,300' AGL
Temperatures Readings
Current 20°C / 68°F
Dewpoint 14°C / 57°F
Humidity 69%
Altimeter 29.94" Hg
Pressure 1014 hPa
Elevation 21
METAR GMTT 201900Z 17003KT 130V230 9999 SCT023 20/14 Q1014 NOSIG
Observed Flight Rules
Oct-20 @ 19:00 UTC
(22 minutes ago)
VFR
Wind Visibility
170° at 3 knots 10,000+ meters
Clouds
  • Scattered at 2,300' AGL
Temperature Dewpoint
20°C / 68°F 14°C / 57°F
Humidity Altimeter Pressure
69% 29.94" Hg 1014 hPa